Time;durP1;ratioP1;P1;durP2;ratioP2;P2;SDS_P1;SDS_P2;PMS_P1;PMS_P2;Temp;Humidity;BMP_temperature;BMP_pressure;BME280_temperature;BME280_humidity;BME280_pressure;Samples;Min_cycle;Max_cycle;Signal;HPM_P1;HPM_P2
2023/01/21 00:01:09;;;;;;;17.75;11.07;;;;;;;-2.26;100.00;98420.09;5045180;28;20461;-64
2023/01/21 00:03:53;;;;;;;16.38;10.95;;;;;;;-2.32;100.00;98422.81;5038730;28;20072;-65
2023/01/21 00:06:38;;;;;;;16.08;10.48;;;;;;;-2.38;100.00;98424.63;5034375;28;20033;-65
2023/01/21 00:09:23;;;;;;;16.10;10.70;;;;;;;-2.46;100.00;98423.94;5033703;28;20103;-65
2023/01/21 00:12:08;;;;;;;16.02;9.75;;;;;;;-2.32;100.00;98425.38;5035399;28;20091;-65
2023/01/21 00:14:52;;;;;;;16.73;10.15;;;;;;;-2.30;100.00;98427.03;5035764;28;20047;-66
2023/01/21 00:17:37;;;;;;;15.77;10.77;;;;;;;-2.29;100.00;98430.44;5034234;28;20053;-65
2023/01/21 00:20:22;;;;;;;15.38;10.00;;;;;;;-2.29;100.00;98430.44;5053665;28;20477;-65
2023/01/21 00:23:09;;;;;;;14.18;9.43;;;;;;;-2.26;100.00;98444.06;5034067;28;20472;-67
2023/01/21 00:26:01;;;;;;;14.80;9.93;;;;;;;-2.20;100.00;98448.19;5034092;28;20392;-66
2023/01/21 00:28:46;;;;;;;24.35;10.15;;;;;;;-2.23;100.00;98433.72;5053302;28;20444;-66
2023/01/21 00:31:31;;;;;;;13.77;9.30;;;;;;;-2.29;100.00;98427.88;5033967;28;20061;-65
2023/01/21 00:34:16;;;;;;;18.40;10.63;;;;;;;-2.29;100.00;98430.44;5031461;28;20349;-66
2023/01/21 00:37:00;;;;;;;17.15;10.07;;;;;;;-2.24;100.00;98426.06;5018955;28;20052;-66
2023/01/21 00:39:45;;;;;;;14.65;8.85;;;;;;;-2.21;100.00;98453.38;5038510;28;20043;-66
2023/01/21 00:42:30;;;;;;;12.50;8.07;;;;;;;-2.06;100.00;98447.91;5040398;28;20041;-66
2023/01/21 00:45:16;;;;;;;13.18;8.70;;;;;;;-2.09;100.00;98440.28;5038158;28;20406;-66
2023/01/21 00:48:01;;;;;;;13.00;8.95;;;;;;;-2.09;100.00;98427.44;5033663;28;20124;-66
2023/01/21 00:50:47;;;;;;;12.50;8.60;;;;;;;-2.21;100.00;98438.81;5043039;28;20033;-66
2023/01/21 00:53:35;;;;;;;13.85;8.73;;;;;;;-2.21;100.00;98437.97;5064582;28;20049;-66
2023/01/21 00:56:20;;;;;;;16.95;8.98;;;;;;;-2.27;100.00;98429.53;5044062;28;20033;-66
2023/01/21 00:59:06;;;;;;;13.73;9.20;;;;;;;-2.36;100.00;98429.72;5031181;28;20041;-66
2023/01/21 01:01:51;;;;;;;13.45;8.88;;;;;;;-2.34;100.00;98435.69;5033554;28;20057;-64
2023/01/21 01:04:36;;;;;;;20.58;9.88;;;;;;;-2.36;100.00;98416.88;5043610;28;20063;-66
2023/01/21 01:07:21;;;;;;;13.50;9.00;;;;;;;-2.32;100.00;98412.53;5033216;28;20038;-65
2023/01/21 01:10:06;;;;;;;13.68;9.02;;;;;;;-2.32;100.00;98423.66;5033435;28;20042;-66
2023/01/21 01:12:50;;;;;;;13.30;9.25;;;;;;;-2.31;100.00;98409.94;5031847;28;20538;-66
2023/01/21 01:15:36;;;;;;;12.05;8.20;;;;;;;-2.25;100.00;98414.94;5032560;28;20473;-66
2023/01/21 01:18:22;;;;;;;13.57;8.65;;;;;;;-2.25;100.00;98414.09;5043397;28;20041;-67
2023/01/21 01:21:11;;;;;;;13.00;8.13;;;;;;;-2.21;100.00;98402.03;5038547;28;20047;-67
2023/01/21 01:24:01;;;;;;;12.25;7.82;;;;;;;-2.35;100.00;98408.34;5031966;28;20033;-68
2023/01/21 01:26:46;;;;;;;13.52;8.45;;;;;;;-2.28;100.00;98406.44;5041179;28;20479;-66
2023/01/21 01:29:30;;;;;;;12.25;7.63;;;;;;;-2.23;100.00;98425.16;5033253;28;20061;-65
2023/01/21 01:32:15;;;;;;;13.73;9.02;;;;;;;-2.21;100.00;98409.72;5044330;28;20037;-65
2023/01/21 01:35:00;;;;;;;12.30;7.93;;;;;;;-2.15;100.00;98417.28;5051316;28;20444;-67
2023/01/21 01:37:45;;;;;;;11.85;7.72;;;;;;;-2.23;100.00;98423.47;5032364;28;20037;-67
2023/01/21 01:40:31;;;;;;;11.18;7.45;;;;;;;-2.16;100.00;98429.31;5034610;28;20038;-66
2023/01/21 01:43:25;;;;;;;11.48;7.32;;;;;;;-1.95;100.00;98416.84;5041779;28;20038;-66
2023/01/21 01:46:09;;;;;;;10.30;7.18;;;;;;;-1.93;100.00;98404.84;5042059;28;20032;-66
2023/01/21 01:49:18;;;;;;;9.90;7.35;;;;;;;-1.94;100.00;98412.56;5053183;28;20044;-66
2023/01/21 01:52:05;;;;;;;9.20;6.25;;;;;;;-1.80;100.00;98401.97;5039808;28;20049;-66
2023/01/21 01:54:54;;;;;;;11.93;7.75;;;;;;;-1.87;100.00;98412.38;5039956;28;20037;-66
2023/01/21 01:57:45;;;;;;;11.65;7.15;;;;;;;-1.88;100.00;98405.53;5050528;28;20037;-66
2023/01/21 02:00:30;;;;;;;10.85;6.85;;;;;;;-2.02;100.00;98395.59;5051261;28;20048;-66
2023/01/21 02:06:18;;;;;;;12.43;8.07;;;;;;;-2.04;100.00;98393.97;5037096;28;20453;-65
2023/01/21 02:09:03;;;;;;;11.13;7.63;;;;;;;-2.16;100.00;98411.34;5052103;28;20171;-66
2023/01/21 02:11:49;;;;;;;11.02;7.43;;;;;;;-2.21;100.00;98389.19;5030748;28;20438;-67
2023/01/21 02:14:41;;;;;;;12.10;7.75;;;;;;;-2.06;100.00;98413.69;5033783;28;20037;-66
2023/01/21 02:17:32;;;;;;;13.75;7.85;;;;;;;-2.06;100.00;98388.88;5032640;28;20116;-65
2023/01/21 02:20:43;;;;;;;12.38;7.43;;;;;;;-2.05;100.00;98389.69;5032942;28;20106;-65
2023/01/21 02:23:46;;;;;;;17.90;7.65;;;;;;;-2.13;100.00;98377.88;5029933;28;20045;-66
2023/01/21 02:26:59;;;;;;;11.27;7.25;;;;;;;-2.17;100.00;98391.66;5048893;28;20132;-67
2023/01/21 02:29:44;;;;;;;;;;;;;;;-2.10;100.00;98387.22;5034136;28;20050;-66
2023/01/21 02:33:07;;;;;;;13.00;7.80;;;;;;;-2.11;100.00;98393.25;5032815;28;19923;-66
2023/01/21 02:36:40;;;;;;;12.55;7.47;;;;;;;-2.11;100.00;98394.13;5045613;28;20460;-65
2023/01/21 02:39:32;;;;;;;;;;;;;;;-2.08;100.00;98392.34;5023899;28;20049;-66
2023/01/21 02:42:23;;;;;;;12.35;7.70;;;;;;;-1.98;100.00;98398.94;5009394;28;19922;-66
2023/01/21 02:45:29;;;;;;;14.43;8.23;;;;;;;-2.09;100.00;98390.66;5015133;28;20050;-66
2023/01/21 02:48:19;;;;;;;12.35;7.38;;;;;;;-2.00;100.00;98393.84;5018699;28;20041;-66
2023/01/21 02:51:04;;;;;;;12.23;7.65;;;;;;;-1.98;100.00;98397.25;5033026;28;20045;-65
2023/01/21 02:53:49;;;;;;;12.32;7.22;;;;;;;-1.98;100.00;98394.66;5020502;28;20044;-66
2023/01/21 02:56:33;;;;;;;11.65;7.05;;;;;;;-1.92;100.00;98401.38;5023033;28;20048;-66
2023/01/21 02:59:18;;;;;;;12.00;7.50;;;;;;;-1.87;100.00;98393.56;5000239;28;20520;-66
2023/01/21 03:02:31;;;;;;;12.30;6.68;;;;;;;-1.81;100.00;98395.97;5013331;28;20050;-66
2023/01/21 03:05:18;;;;;;;12.48;8.13;;;;;;;-1.84;100.00;98400.38;5015138;28;20046;-66
2023/01/21 03:08:11;;;;;;;12.75;8.05;;;;;;;-1.83;100.00;98396.91;5028296;28;20057;-66
2023/01/21 03:11:08;;;;;;;15.80;8.10;;;;;;;-1.85;100.00;98399.50;5013379;28;20041;-66
2023/01/21 03:17:43;;;;;;;12.13;7.35;;;;;;;-1.92;100.00;98388.53;5034447;28;20040;-66
2023/01/21 03:20:35;;;;;;;14.55;8.18;;;;;;;-1.94;100.00;98384.31;5036221;28;20049;-66
2023/01/21 03:23:25;;;;;;;14.30;7.38;;;;;;;-1.95;100.00;98380.91;5063279;28;20037;-65
2023/01/21 03:26:16;;;;;;;15.18;7.97;;;;;;;-1.89;100.00;98373.06;5032714;28;20056;-66
2023/01/21 03:29:08;;;;;;;12.32;7.30;;;;;;;-1.73;100.00;98385.53;5041750;28;20060;-65
2023/01/21 03:31:59;;;;;;;15.70;7.57;;;;;;;-1.81;100.00;98372.03;5053605;28;20051;-65
2023/01/21 03:34:50;;;;;;;14.38;8.07;;;;;;;-1.83;100.00;98382.34;5053090;28;20433;-68
2023/01/21 03:37:48;;;;;;;12.48;7.85;;;;;;;-1.93;100.00;98383.44;5055628;28;20086;-66
2023/01/21 03:40:40;;;;;;;12.88;7.00;;;;;;;-1.86;100.00;98377.28;5053677;28;20068;-66
2023/01/21 03:43:26;;;;;;;12.50;7.47;;;;;;;-1.95;100.00;98372.34;5055137;28;20091;-65
2023/01/21 03:46:47;;;;;;;12.90;7.68;;;;;;;-1.93;100.00;98368.03;5055113;28;20037;-66
2023/01/21 03:50:22;;;;;;;12.38;7.50;;;;;;;-1.91;100.00;98372.22;5035894;28;20078;-66
2023/01/21 03:53:06;;;;;;;13.02;7.53;;;;;;;-1.95;100.00;98370.63;5019854;28;20041;-64
2023/01/21 03:55:51;;;;;;;14.10;8.18;;;;;;;-1.88;100.00;98363.63;5019746;28;20037;-64
2023/01/21 03:58:36;;;;;;;12.93;7.75;;;;;;;-1.89;100.00;98370.47;5030965;28;20544;-64
2023/01/21 04:01:23;;;;;;;15.18;8.57;;;;;;;-1.97;100.00;98362.13;5043979;28;20063;-64
2023/01/21 04:04:08;;;;;;;13.80;8.10;;;;;;;-1.91;100.00;98367.09;5030874;28;20156;-65
2023/01/21 04:06:53;;;;;;;13.88;7.70;;;;;;;-1.93;100.00;98353.47;5032994;28;20045;-65
2023/01/21 04:09:37;;;;;;;13.07;7.78;;;;;;;-1.92;100.00;98355.16;5033358;28;20045;-65
2023/01/21 04:12:22;;;;;;;13.65;7.65;;;;;;;-1.96;100.00;98358.69;5018907;28;20452;-65
2023/01/21 04:15:07;;;;;;;12.77;7.35;;;;;;;-2.02;100.00;98349.38;5032768;28;20041;-65
2023/01/21 04:17:52;;;;;;;13.48;7.75;;;;;;;-2.02;100.00;98340.84;5018821;28;20049;-64
2023/01/21 04:20:36;;;;;;;13.40;7.18;;;;;;;-1.89;100.00;98367.06;5016905;28;20132;-64
2023/01/21 04:23:21;;;;;;;15.10;8.20;;;;;;;-1.92;100.00;98362.00;5023236;28;20060;-65
2023/01/21 04:26:06;;;;;;;13.52;7.97;;;;;;;-2.01;100.00;98363.09;5034753;28;20219;-65
2023/01/21 04:28:51;;;;;;;13.18;7.70;;;;;;;-1.99;100.00;98375.00;5033983;28;20053;-65
2023/01/21 04:31:35;;;;;;;12.75;7.05;;;;;;;-1.96;100.00;98365.53;5049948;28;20033;-64
2023/01/21 04:34:20;;;;;;;12.60;7.50;;;;;;;-1.97;100.00;98377.53;5053847;28;20134;-65
2023/01/21 04:37:04;;;;;;;14.25;7.68;;;;;;;-1.90;100.00;98371.38;5053838;28;20055;-64
2023/01/21 04:39:49;;;;;;;12.27;7.25;;;;;;;-1.75;100.00;98382.97;5054410;28;20529;-65
2023/01/21 04:42:35;;;;;;;11.77;7.22;;;;;;;-1.79;100.00;98377.97;5054298;28;20060;-64
2023/01/21 04:45:20;;;;;;;11.13;6.97;;;;;;;-1.91;100.00;98377.38;5054310;28;20077;-64
2023/01/21 04:48:04;;;;;;;11.38;7.32;;;;;;;-1.93;100.00;98375.72;5054173;28;20037;-64
2023/01/21 04:50:49;;;;;;;10.75;6.53;;;;;;;-1.83;100.00;98389.19;5054752;28;20072;-65
2023/01/21 04:53:34;;;;;;;12.20;7.10;;;;;;;-1.97;100.00;98390.34;5049677;28;20083;-64
2023/01/21 04:56:21;;;;;;;13.52;7.43;;;;;;;-2.02;100.00;98400.75;5034947;28;20520;-64
2023/01/21 04:59:06;;;;;;;14.40;7.70;;;;;;;-1.93;100.00;98406.56;5036440;28;20163;-64
2023/01/21 05:01:50;;;;;;;14.35;6.63;;;;;;;-1.89;100.00;98424.41;5036147;28;20108;-65
2023/01/21 05:04:35;;;;;;;13.15;7.93;;;;;;;-1.90;100.00;98417.59;5037728;28;20063;-64
2023/01/21 05:07:20;;;;;;;13.30;6.78;;;;;;;-1.83;100.00;98430.28;5032502;28;20068;-64
2023/01/21 05:10:05;;;;;;;13.75;6.97;;;;;;;-1.78;100.00;98436.19;5035887;28;20040;-64
2023/01/21 05:17:17;;;;;;;12.32;6.82;;;;;;;-1.86;100.00;98447.47;5048520;28;20044;-65
2023/01/21 05:20:05;;;;;;;14.05;7.25;;;;;;;-1.80;100.00;98451.63;5032770;28;20369;-65
2023/01/21 05:22:51;;;;;;;10.98;6.15;;;;;;;-1.81;100.00;98456.81;5033974;28;20472;-65
2023/01/21 05:25:36;;;;;;;12.98;6.97;;;;;;;-1.76;100.00;98458.38;5042939;28;20033;-65
2023/01/21 05:28:21;;;;;;;12.35;6.95;;;;;;;-1.64;100.00;98466.66;5038504;28;20033;-65
2023/01/21 05:31:05;;;;;;;12.55;7.15;;;;;;;-1.79;100.00;98473.00;5064753;28;20443;-64
2023/01/21 05:33:50;;;;;;;11.40;6.90;;;;;;;-1.74;100.00;98484.88;5031791;28;20037;-65
2023/01/21 05:36:36;;;;;;;13.23;6.97;;;;;;;-1.72;100.00;98477.13;5031358;28;20052;-65
2023/01/21 05:39:21;;;;;;;12.55;7.03;;;;;;;-1.90;100.00;98493.78;5034560;28;20175;-64
2023/01/21 05:42:07;;;;;;;11.02;6.45;;;;;;;-1.96;100.00;98494.78;5038017;28;20034;-64
2023/01/21 05:44:52;;;;;;;11.38;6.50;;;;;;;-1.92;100.00;98504.09;5031304;28;20037;-64
2023/01/21 05:47:37;;;;;;;12.35;6.95;;;;;;;-1.79;100.00;98494.41;5032213;28;20388;-65
2023/01/21 05:50:21;;;;;;;12.07;7.10;;;;;;;-1.75;100.00;98500.31;5038204;28;20388;-64
2023/01/21 05:53:07;;;;;;;12.95;6.95;;;;;;;-1.77;100.00;98497.78;5036906;28;20044;-65
2023/01/21 05:55:53;;;;;;;13.32;7.05;;;;;;;-1.90;100.00;98486.94;5050943;28;20036;-64
2023/01/21 05:58:37;;;;;;;13.48;7.03;;;;;;;-2.03;100.00;98496.63;5051950;28;20045;-65
2023/01/21 06:01:22;;;;;;;12.27;6.32;;;;;;;-2.04;100.00;98497.50;5037498;28;20045;-65
2023/01/21 06:04:08;;;;;;;9.80;5.93;;;;;;;-1.95;100.00;98508.47;5035110;28;20450;-65
2023/01/21 06:06:56;;;;;;;9.70;5.72;;;;;;;-1.88;100.00;98503.16;5031740;28;20120;-64
2023/01/21 06:09:42;;;;;;;12.13;6.97;;;;;;;-1.98;100.00;98499.09;5043710;28;20065;-63
2023/01/21 06:12:28;;;;;;;10.40;6.25;;;;;;;-1.89;100.00;98508.31;5032272;28;20037;-64
2023/01/21 06:15:13;;;;;;;11.40;6.38;;;;;;;-1.88;100.00;98518.56;5052340;28;20120;-64
2023/01/21 06:17:57;;;;;;;10.65;6.00;;;;;;;-1.94;100.00;98523.81;5051989;28;20094;-64
2023/01/21 06:20:42;;;;;;;10.38;6.05;;;;;;;-1.90;100.00;98528.03;5057051;28;20136;-65
2023/01/21 06:23:27;;;;;;;8.75;5.50;;;;;;;-2.00;100.00;98521.41;5056457;28;20037;-64
2023/01/21 06:26:12;;;;;;;10.50;5.85;;;;;;;-2.05;100.00;98526.63;5056320;28;20045;-64
2023/01/21 06:28:57;;;;;;;10.30;6.32;;;;;;;-2.05;100.00;98530.91;5037421;28;20062;-64
2023/01/21 06:31:42;;;;;;;9.82;5.72;;;;;;;-2.00;100.00;98526.53;5048978;28;20052;-65
2023/01/21 06:34:27;;;;;;;10.82;5.68;;;;;;;-1.94;100.00;98535.84;5057388;28;20037;-63
2023/01/21 06:37:12;;;;;;;9.20;5.30;;;;;;;-2.00;100.00;98531.66;5024600;28;20076;-64
2023/01/21 06:39:57;;;;;;;8.52;4.82;;;;;;;-1.88;100.00;98530.56;5037313;28;20053;-64
2023/01/21 06:42:44;;;;;;;9.77;5.20;;;;;;;-2.01;100.00;98523.09;5036128;28;20037;-65
2023/01/21 06:45:29;;;;;;;9.02;5.05;;;;;;;-1.48;100.00;98505.69;5035871;28;20528;-68
2023/01/21 06:48:14;;;;;;;8.43;4.95;;;;;;;0.15;100.00;98515.16;5035464;28;20044;-64
2023/01/21 06:50:59;;;;;;;9.15;5.13;;;;;;;-1.16;100.00;98509.22;5037708;28;20049;-65
2023/01/21 06:53:46;;;;;;;8.77;5.30;;;;;;;-1.52;100.00;98511.81;5036393;28;20044;-65
2023/01/21 06:56:30;;;;;;;8.95;5.72;;;;;;;-1.69;100.00;98528.44;5036720;28;20087;-64
2023/01/21 06:59:15;;;;;;;8.32;5.13;;;;;;;-1.38;100.00;98516.63;5041206;28;20473;-65
2023/01/21 07:02:00;;;;;;;7.88;4.90;;;;;;;-1.24;100.00;98524.00;5047849;28;20033;-67
2023/01/21 07:09:15;;;;;;;10.40;4.93;;;;;;;-1.62;100.00;98547.16;5052709;28;20120;-66
2023/01/21 07:12:00;;;;;;;8.77;4.88;;;;;;;-1.79;100.00;98548.34;5054781;28;20037;-66
2023/01/21 07:14:45;;;;;;;7.55;4.50;;;;;;;-1.61;100.00;98557.38;5049695;28;20427;-66
2023/01/21 07:17:29;;;;;;;8.80;4.57;;;;;;;-1.73;100.00;98552.53;5035500;28;20073;-66
2023/01/21 07:20:15;;;;;;;9.73;5.18;;;;;;;-1.61;100.00;98559.09;5036244;28;20051;-66
2023/01/21 07:23:01;;;;;;;8.25;5.05;;;;;;;-1.61;100.00;98564.25;5035880;28;20076;-65
2023/01/21 07:25:46;;;;;;;9.90;5.10;;;;;;;-1.59;100.00;98562.50;5035979;28;20040;-65
2023/01/21 07:28:31;;;;;;;6.72;4.30;;;;;;;-1.51;100.00;98576.03;5048791;28;20545;-64
2023/01/21 07:31:16;;;;;;;10.35;4.80;;;;;;;-1.52;100.00;98573.50;5039782;28;20068;-64
2023/01/21 07:34:02;;;;;;;7.88;4.03;;;;;;;-1.54;100.00;98565.81;5053423;28;20388;-65
2023/01/21 07:36:47;;;;;;;7.38;4.55;;;;;;;-1.53;100.00;98556.34;5053631;28;20032;-66
2023/01/21 07:39:31;;;;;;;7.18;4.40;;;;;;;-1.79;100.00;98556.06;5051872;28;20059;-67
2023/01/21 07:42:16;;;;;;;8.48;4.90;;;;;;;-1.79;100.00;98576.59;5052096;28;20043;-68
2023/01/21 07:45:02;;;;;;;6.97;4.25;;;;;;;-1.83;100.00;98574.13;5048919;28;20033;-67
2023/01/21 07:47:49;;;;;;;14.68;7.05;;;;;;;-1.70;100.00;98573.00;5032940;28;20041;-66
2023/01/21 07:50:34;;;;;;;9.15;4.57;;;;;;;-1.61;100.00;98582.22;5033258;28;20133;-66
2023/01/21 07:53:18;;;;;;;7.70;4.28;;;;;;;-1.54;100.00;98572.66;5047606;28;20049;-66
2023/01/21 07:56:05;;;;;;;8.55;4.78;;;;;;;-1.69;100.00;98582.41;5040774;28;20043;-66
2023/01/21 07:58:51;;;;;;;6.90;3.83;;;;;;;-1.47;100.00;98586.22;5049388;28;21510;-65
2023/01/21 08:01:36;;;;;;;7.55;4.25;;;;;;;-1.57;100.00;98590.72;5043191;28;20042;-67
2023/01/21 08:04:21;;;;;;;9.48;4.50;;;;;;;-1.52;100.00;98592.28;5042680;28;20477;-67
2023/01/21 08:07:08;;;;;;;7.20;4.20;;;;;;;-1.65;100.00;98589.16;5035824;28;20036;-66
2023/01/21 08:09:53;;;;;;;8.38;5.03;;;;;;;-1.42;100.00;98576.69;5032430;28;20060;-67
2023/01/21 08:12:40;;;;;;;9.18;5.05;;;;;;;-1.24;100.00;98580.56;5050311;28;22158;-66
2023/01/21 08:15:25;;;;;;;8.77;4.38;;;;;;;-1.18;100.00;98577.00;5044480;28;20037;-67
2023/01/21 08:18:09;;;;;;;8.18;4.82;;;;;;;-1.42;100.00;98585.22;5035317;28;20038;-66
2023/01/21 08:20:55;;;;;;;7.38;4.00;;;;;;;-1.32;100.00;98578.16;5034029;28;20034;-66
2023/01/21 08:23:41;;;;;;;8.88;4.60;;;;;;;-1.46;100.00;98583.63;5034230;28;20441;-67
2023/01/21 08:26:26;;;;;;;8.00;4.65;;;;;;;-1.18;100.00;98602.72;5035812;28;20037;-66
2023/01/21 08:29:13;;;;;;;8.48;4.70;;;;;;;-1.41;100.00;98606.66;5006151;28;20053;-66
2023/01/21 08:31:57;;;;;;;7.45;4.50;;;;;;;-1.22;100.00;98617.38;5019590;28;20045;-66
2023/01/21 08:34:42;;;;;;;7.82;4.55;;;;;;;-1.22;100.00;98625.06;5033591;28;20110;-66
2023/01/21 08:37:27;;;;;;;7.82;4.50;;;;;;;-1.12;100.00;98642.00;5050743;28;20043;-68
2023/01/21 08:40:12;;;;;;;8.70;4.60;;;;;;;-1.08;100.00;98640.22;5054363;28;20068;-66
2023/01/21 08:43:01;;;;;;;8.48;4.75;;;;;;;-1.07;100.00;98654.75;5043609;28;20090;-67
2023/01/21 08:45:45;;;;;;;7.55;4.30;;;;;;;-1.24;100.00;98652.56;5041486;28;20055;-66
2023/01/21 08:48:32;;;;;;;7.68;5.03;;;;;;;-1.12;100.00;98642.00;5052117;28;20040;-66
2023/01/21 08:51:16;;;;;;;13.52;7.32;;;;;;;-0.94;100.00;98647.59;5038964;28;20030;-67
2023/01/21 08:54:01;;;;;;;8.50;5.00;;;;;;;-0.97;100.00;98642.53;5069733;28;20839;-68
2023/01/21 08:56:48;;;;;;;7.40;4.47;;;;;;;-0.82;100.00;98635.31;5029740;28;20041;-66
2023/01/21 08:59:34;;;;;;;6.93;4.13;;;;;;;-0.79;100.00;98641.25;5033124;28;20037;-66
2023/01/21 09:02:19;;;;;;;9.27;4.90;;;;;;;-0.86;100.00;98639.69;5049197;28;20052;-67
2023/01/21 09:05:04;;;;;;;7.72;4.80;;;;;;;-0.58;100.00;98639.03;5051569;28;20065;-66
2023/01/21 09:07:51;;;;;;;7.68;4.30;;;;;;;-0.41;100.00;98636.00;5048241;28;20537;-66
2023/01/21 09:13:39;;;;;;;7.75;4.53;;;;;;;-0.50;100.00;98649.97;5067585;28;20052;-67
2023/01/21 09:16:24;;;;;;;8.63;5.35;;;;;;;-0.71;100.00;98645.34;5039594;28;20037;-66
2023/01/21 09:19:09;;;;;;;6.47;4.20;;;;;;;-0.52;100.00;98651.75;5033738;28;20086;-66
2023/01/21 09:21:55;;;;;;;8.40;4.53;;;;;;;-0.31;100.00;98646.09;5032141;28;20037;-66
2023/01/21 09:24:41;;;;;;;8.77;5.13;;;;;;;-0.16;100.00;98653.41;5032977;28;20037;-66
2023/01/21 09:27:27;;;;;;;7.95;4.80;;;;;;;-0.01;99.64;98648.75;5033180;28;20041;-68
2023/01/21 09:30:13;;;;;;;8.63;4.68;;;;;;;0.31;98.57;98659.88;5042406;28;20079;-67
2023/01/21 09:32:58;;;;;;;9.25;4.38;;;;;;;0.56;94.35;98654.03;5041329;28;20492;-67
2023/01/21 09:35:43;;;;;;;6.93;4.28;;;;;;;0.23;94.29;98646.38;5042679;28;20033;-66
2023/01/21 09:38:29;;;;;;;7.82;4.65;;;;;;;0.38;94.50;98642.50;5051798;28;20072;-67
2023/01/21 09:41:22;;;;;;;8.15;4.53;;;;;;;0.40;97.17;98651.06;5040681;28;20057;-66
2023/01/21 09:44:22;;;;;;;8.40;4.28;;;;;;;0.49;95.16;98657.66;5038018;28;20041;-68
2023/01/21 09:47:28;;;;;;;8.10;4.55;;;;;;;0.60;93.71;98654.78;5049119;28;20052;-67
2023/01/21 09:50:15;;;;;;;7.68;4.50;;;;;;;0.49;94.01;98665.41;5034822;28;20039;-66
2023/01/21 09:53:13;;;;;;;6.45;3.95;;;;;;;0.27;94.84;98660.88;5015596;28;20042;-66
2023/01/21 09:56:04;;;;;;;6.47;4.13;;;;;;;0.21;94.94;98658.47;5032255;28;20099;-66
2023/01/21 09:58:59;;;;;;;7.38;4.75;;;;;;;-0.06;95.40;98656.59;5033184;28;20514;-66
2023/01/21 10:01:45;;;;;;;7.85;4.50;;;;;;;-0.15;96.03;98649.94;5032491;28;20059;-67
2023/01/21 10:04:39;;;;;;;8.13;4.85;;;;;;;-0.19;96.71;98638.03;5032509;28;20040;-67
2023/01/21 10:07:35;;;;;;;7.90;4.40;;;;;;;0.30;94.67;98655.63;5032148;28;20037;-66
2023/01/21 10:10:34;;;;;;;7.80;4.18;;;;;;;0.40;93.91;98657.94;5031863;28;20040;-68
2023/01/21 10:13:38;;;;;;;7.57;4.35;;;;;;;0.30;93.83;98654.78;5035412;28;20041;-67
2023/01/21 10:16:42;;;;;;;8.40;4.53;;;;;;;0.52;92.62;98659.31;5034000;28;20052;-69
2023/01/21 10:19:35;;;;;;;6.47;3.83;;;;;;;0.76;93.78;98646.59;5042247;28;20480;-68
2023/01/21 10:22:25;;;;;;;5.07;3.72;;;;;;;1.40;89.77;98649.78;5032278;28;20033;-67
2023/01/21 10:25:28;;;;;;;6.50;3.97;;;;;;;1.73;85.58;98654.69;5045287;28;20037;-67
2023/01/21 10:28:27;;;;;;;6.30;3.92;;;;;;;1.15;87.69;98651.41;5051545;28;20045;-67
2023/01/21 10:31:19;;;;;;;5.75;3.90;;;;;;;1.27;86.97;98649.34;5030006;28;20072;-67
2023/01/21 10:34:13;;;;;;;7.03;4.47;;;;;;;1.38;87.44;98642.09;5030278;28;20044;-67
2023/01/21 10:37:20;;;;;;;6.88;4.30;;;;;;;1.64;85.01;98648.13;5033137;28;20042;-67
2023/01/21 10:40:16;;;;;;;7.15;3.72;;;;;;;2.08;83.80;98641.47;5031480;28;20329;-67
2023/01/21 10:43:26;;;;;;;7.53;4.03;;;;;;;1.59;84.56;98639.69;5030961;28;20037;-67
2023/01/21 10:46:41;;;;;;;6.28;3.90;;;;;;;1.33;86.30;98628.47;5038177;28;20465;-66
2023/01/21 10:49:53;;;;;;;8.48;4.78;;;;;;;1.90;84.97;98637.78;5038779;28;20118;-67
2023/01/21 10:52:51;;;;;;;6.40;4.20;;;;;;;1.89;83.18;98633.53;5030772;28;20459;-67
2023/01/21 10:55:44;;;;;;;6.93;4.28;;;;;;;2.32;83.91;98631.97;5032366;28;20431;-67
2023/01/21 10:58:54;;;;;;;6.20;3.80;;;;;;;2.65;83.17;98638.53;5018613;28;20041;-67
2023/01/21 11:01:43;;;;;;;6.35;3.67;;;;;;;2.41;81.10;98622.19;5030882;28;20120;-67
2023/01/21 11:04:27;;;;;;;5.63;3.63;;;;;;;1.62;82.22;98623.25;5061161;28;20044;-66
2023/01/21 11:08:04;;;;;;;6.15;3.75;;;;;;;1.59;85.82;98619.88;5033994;28;20099;-66
2023/01/21 11:10:55;;;;;;;6.40;4.45;;;;;;;1.55;84.73;98617.44;5035860;28;20045;-66
2023/01/21 11:13:40;;;;;;;6.90;4.05;;;;;;;1.50;84.77;98619.34;5047322;28;20385;-67
2023/01/21 11:16:44;;;;;;;7.55;4.40;;;;;;;1.21;85.75;98621.97;5055112;28;20072;-67
2023/01/21 11:19:30;;;;;;;9.38;4.10;;;;;;;1.12;85.90;98630.88;5048337;28;20431;-67
2023/01/21 11:22:17;;;;;;;6.72;4.03;;;;;;;1.21;88.27;98640.03;5034261;28;20428;-67
2023/01/21 11:25:24;;;;;;;5.72;3.78;;;;;;;1.17;86.10;98623.81;5019342;28;20049;-66
2023/01/21 11:28:29;;;;;;;5.18;3.67;;;;;;;0.44;88.71;98636.34;5055877;28;20049;-66
2023/01/21 11:31:25;;;;;;;7.88;4.30;;;;;;;0.90;91.03;98634.09;5047933;28;20037;-67
2023/01/21 11:34:17;;;;;;;6.32;3.97;;;;;;;1.00;87.96;98644.16;5036484;28;20350;-67
2023/01/21 11:37:03;;;;;;;;;;;;;;;0.93;89.08;98646.09;5038796;28;20043;-66
2023/01/21 11:39:55;;;;;;;6.53;3.63;;;;;;;1.03;89.98;98644.91;5036309;28;19917;-66
2023/01/21 11:42:52;;;;;;;7.80;4.20;;;;;;;0.72;90.11;98643.25;5034956;28;20045;-66
2023/01/21 11:45:38;;;;;;;6.00;3.78;;;;;;;0.48;90.55;98650.81;5047555;28;20492;-67
2023/01/21 11:48:23;;;;;;;6.18;4.05;;;;;;;0.46;90.86;98655.19;5040452;28;20033;-67
2023/01/21 11:51:09;;;;;;;6.07;3.50;;;;;;;0.28;92.00;98649.66;5073588;28;20071;-69
2023/01/21 11:54:07;;;;;;;6.20;4.18;;;;;;;0.30;92.10;98655.63;5042071;28;20037;-68
2023/01/21 11:56:57;;;;;;;6.63;4.50;;;;;;;0.40;92.04;98658.78;5039441;28;20473;-67
2023/01/21 11:59:48;;;;;;;7.15;4.45;;;;;;;0.35;91.84;98658.94;5044443;28;20112;-68
2023/01/21 12:02:40;;;;;;;8.45;4.25;;;;;;;0.35;91.85;98655.50;5049756;28;20103;-67
2023/01/21 12:05:37;;;;;;;5.40;3.72;;;;;;;0.38;93.66;98660.56;5034138;28;20043;-66
2023/01/21 12:08:35;;;;;;;7.00;4.13;;;;;;;0.57;92.04;98668.59;5038243;28;20469;-66
2023/01/21 12:11:31;;;;;;;6.78;4.25;;;;;;;0.53;91.82;98664.44;5035599;28;20056;-66
2023/01/21 12:14:30;;;;;;;6.15;3.90;;;;;;;1.01;93.04;98657.03;5035068;28;20037;-67
2023/01/21 12:17:41;;;;;;;5.47;2.95;;;;;;;1.19;91.24;98657.34;5017851;28;20045;-67
2023/01/21 12:20:44;;;;;;;6.22;4.05;;;;;;;0.91;88.67;98653.03;5020070;28;20041;-67
2023/01/21 12:23:41;;;;;;;6.00;3.45;;;;;;;1.00;91.32;98655.31;5046555;28;20501;-69
2023/01/21 12:26:46;;;;;;;5.80;3.03;;;;;;;1.12;91.65;98656.69;5033930;28;20041;-68
2023/01/21 12:29:51;;;;;;;5.82;3.58;;;;;;;1.26;89.22;98663.97;5037846;28;20139;-68
2023/01/21 12:32:40;;;;;;;6.47;3.67;;;;;;;0.80;89.38;98656.75;5036867;28;20454;-68
2023/01/21 12:35:44;;;;;;;5.03;3.38;;;;;;;1.05;91.40;98658.59;5040302;28;20094;-67
2023/01/21 12:38:33;;;;;;;5.80;2.97;;;;;;;1.23;89.52;98662.34;5045294;28;20049;-67
2023/01/21 12:41:29;;;;;;;5.68;3.63;;;;;;;1.56;89.39;98657.88;5035928;28;20123;-68
2023/01/21 12:44:40;;;;;;;4.88;3.20;;;;;;;1.59;86.70;98663.78;5034099;28;20060;-68
2023/01/21 12:47:39;;;;;;;6.78;3.83;;;;;;;0.86;89.81;98661.72;5030976;28;20038;-68
2023/01/21 12:50:38;;;;;;;6.22;3.85;;;;;;;1.15;87.91;98663.47;5037303;28;20136;-68
2023/01/21 12:53:43;;;;;;;6.18;3.95;;;;;;;1.45;88.88;98664.22;5030869;28;20120;-69
2023/01/21 12:56:43;;;;;;;6.82;3.30;;;;;;;1.38;88.58;98675.66;5065244;28;20053;-70
2023/01/21 12:59:52;;;;;;;5.43;3.35;;;;;;;1.33;87.96;98662.91;5019360;28;20098;-65
2023/01/21 13:03:04;;;;;;;4.82;3.42;;;;;;;1.43;86.82;98668.59;5045595;28;20095;-69
2023/01/21 13:06:13;;;;;;;5.68;3.60;;;;;;;1.43;87.47;98667.75;5051174;28;20041;-68
2023/01/21 13:09:18;;;;;;;6.28;3.78;;;;;;;1.22;87.87;98673.53;5061860;28;20076;-68
2023/01/21 13:12:14;;;;;;;6.88;3.97;;;;;;;1.33;89.61;98677.53;5053508;28;20045;-68
2023/01/21 13:15:20;;;;;;;5.88;3.45;;;;;;;1.40;90.37;98688.50;5055465;28;20151;-68
2023/01/21 13:18:22;;;;;;;6.45;3.78;;;;;;;0.84;87.82;98689.34;5055854;28;20126;-68
2023/01/21 13:21:24;;;;;;;5.33;3.60;;;;;;;0.78;89.99;98688.66;5066703;28;20098;-67
2023/01/21 13:24:31;;;;;;;;;;;;;;;0.83;88.09;98694.53;5052527;28;20302;-68
2023/01/21 13:27:23;;;;;;;5.40;3.30;;;;;;;1.00;90.63;98701.75;5035590;28;19924;-67
2023/01/21 13:30:17;;;;;;;7.18;3.85;;;;;;;1.16;88.86;98706.47;5036279;28;20540;-67
2023/01/21 13:33:04;;;;;;;6.70;4.00;;;;;;;0.35;90.69;98725.94;5051749;28;20064;-67